Barcelona Aeropuerto

latitud = 41° 17' 34''N | longitud = 002° 04' 12''E
4 metros sobre el nivel del mar | datos mensuales

Fecha, hora, temperatura, viento dirección y velocidad, humedad y presión.

  • 25-09-2017 00:00:00 | 21.00°C | Noroeste |6.00 km/h | 84.00% | 1018.50 hPa
  • 24-09-2017 23:00:00 | 22.40°C | Oeste |4.00 km/h | 81.00% | 1018.60 hPa
  • 24-09-2017 22:00:00 | 22.30°C | Noroeste |5.00 km/h | 83.00% | 1018.60 hPa
  • 24-09-2017 21:00:00 | 22.80°C | Oeste |10.00 km/h | 83.00% | 1018.30 hPa
  • 24-09-2017 20:00:00 | 23.50°C | Oeste |14.00 km/h | 80.00% | 1018.10 hPa
  • 24-09-2017 19:00:00 | 24.30°C | Sudoeste |21.00 km/h | 75.00% | 1017.90 hPa
  • 24-09-2017 18:00:00 | 25.00°C | Sudoeste |25.00 km/h | 72.00% | 1017.80 hPa
  • 24-09-2017 17:00:00 | 25.30°C | Sudoeste |29.00 km/h | 70.00% | 1018.20 hPa
  • 24-09-2017 16:00:00 | 25.60°C | Sudoeste |27.00 km/h | 69.00% | 1018.30 hPa
  • 24-09-2017 15:00:00 | 25.30°C | Sudoeste |29.00 km/h | 70.00% | 1018.50 hPa
  • 24-09-2017 14:00:00 | 25.30°C | Sudoeste |28.00 km/h | 70.00% | 1018.80 hPa
  • 24-09-2017 13:00:00 | 25.20°C | Sudoeste |27.00 km/h | 69.00% | 1019.30 hPa
  • 24-09-2017 12:00:00 | 25.00°C | Sudoeste |24.00 km/h | 69.00% | 1019.50 hPa
  • 24-09-2017 11:00:00 | 23.10°C | Norte |10.00 km/h | 68.00% | 1019.40 hPa
  • 24-09-2017 10:00:00 | 21.40°C | Norte |12.00 km/h | 75.00% | 1019.20 hPa
  • 24-09-2017 09:00:00 | 19.80°C | Norte |13.00 km/h | 80.00% | 1019.00 hPa
  • 24-09-2017 08:00:00 | 18.80°C | Norte |5.00 km/h | 86.00% | 1018.90 hPa
  • 24-09-2017 07:00:00 | 18.70°C | Norte |11.00 km/h | 86.00% | 1018.80 hPa
  • 24-09-2017 06:00:00 | 19.00°C | Norte |10.00 km/h | 86.00% | 1018.70 hPa
  • 24-09-2017 05:00:00 | 19.10°C | Norte |11.00 km/h | 87.00% | 1018.70 hPa
  • 24-09-2017 04:00:00 | 19.30°C | Norte |8.00 km/h | 87.00% | 1019.10 hPa
  • 24-09-2017 03:00:00 | 19.20°C | Norte |9.00 km/h | 87.00% | 1019.50 hPa
  • 24-09-2017 02:00:00 | 19.40°C | Norte |5.00 km/h | 86.00% | 1019.60 hPa
  • 24-09-2017 01:00:00 | 20.10°C | Norte |3.00 km/h | 84.00% | 1019.60 hPa